Time;durP1;ratioP1;P1;durP2;ratioP2;P2;SDS_P1;SDS_P2;PMS_P1;PMS_P2;Temp;Humidity;BMP_temperature;BMP_pressure;BME280_temperature;BME280_humidity;BME280_pressure;Samples;Min_cycle;Max_cycle;Signal;HPM_P1;HPM_P2
2024/04/03 00:02:04;;;;;;;;;;;;;;;;;;5077316;28;19993;-62
2024/04/03 00:04:30;;;;;;;;;;;;;;;;;;5074085;28;19951;-64
2024/04/03 00:06:57;;;;;;;;;;;;;;;;;;5085105;28;19923;-60
2024/04/03 00:09:22;;;;;;;;;;;;;;;;;;5085309;28;19923;-61
2024/04/03 00:11:48;;;;;;;;;;;;;;;;;;5083878;28;19928;-61
2024/04/03 00:14:13;;;;;;;;;;;;;;;;;;5085642;28;20028;-66
2024/04/03 00:16:38;;;;;;;;;;;;;;;;;;5085255;28;19916;-63
2024/04/03 00:19:04;;;;;;;;;;;;;;;;;;5085719;28;20157;-62
2024/04/03 00:21:29;;;;;;;;;;;;;;;;;;5083961;28;20018;-62
2024/04/03 00:23:55;;;;;;;;;;;;;;;;;;5083318;28;19916;-63
2024/04/03 00:26:20;;;;;;;;;;;;;;;;;;5073461;28;19916;-62
2024/04/03 00:28:46;;;;;;;;;;;;;;;;;;5085012;28;20359;-69
2024/04/03 00:31:12;;;;;;;;;;;;;;;;;;5085273;28;20292;-63
2024/04/03 00:33:37;;;;;;;;;;;;;;;;;;5085083;28;19939;-66
2024/04/03 00:36:02;;;;;;;;;;;;;;;;;;5085238;28;19931;-67
2024/04/03 00:38:27;;;;;;;;;;;;;;;;;;5086943;28;19916;-64
2024/04/03 00:40:52;;;;;;;;;;;;;;;;;;5087104;28;19924;-64
2024/04/03 00:43:17;;;;;;;;;;;;;;;;;;5083432;28;19973;-65
2024/04/03 00:45:43;;;;;;;;;;;;;;;;;;5088972;28;19916;-67
2024/04/03 00:48:08;;;;;;;;;;;;;;;;;;5083387;28;19916;-63
2024/04/03 00:50:33;;;;;;;;;;;;;;;;;;5088675;27;20307;-63
2024/04/03 00:52:59;;;;;;;;;;;;;;;;;;5085681;28;19932;-64
2024/04/03 00:55:24;;;;;;;;;;;;;;;;;;5080973;28;20019;-62
2024/04/03 00:57:49;;;;;;;;;;;;;;;;;;5086637;28;20438;-63
2024/04/03 01:00:14;;;;;;;;;;;;;;;;;;5088157;28;19973;-63
2024/04/03 01:02:40;;;;;;;;;;;;;;;;;;5088286;28;19930;-63
2024/04/03 01:05:05;;;;;;;;;;;;;;;;;;5082906;28;20303;-62
2024/04/03 01:07:30;;;;;;;;;;;;;;;;;;5067609;28;19925;-64
2024/04/03 01:09:55;;;;;;;;;;;;;;;;;;5067691;28;20607;-63
2024/04/03 01:12:20;;;;;;;;;;;;;;;;;;5065479;28;19931;-62
2024/04/03 01:14:45;;;;;;;;;;;;;;;;;;5068482;28;19923;-65
2024/04/03 01:17:11;;;;;;;;;;;;;;;;;;5073391;28;20026;-62
2024/04/03 01:19:37;;;;;;;;;;;;;;;;;;5086930;28;19925;-63
2024/04/03 01:22:02;;;;;;;;;;;;;;;;;;5087944;28;19928;-63
2024/04/03 01:24:27;;;;;;;;;;;;;;;;;;5088003;28;19916;-64
2024/04/03 01:26:52;;;;;;;;;;;;;;;;;;5077924;28;19917;-63
2024/04/03 01:29:17;;;;;;;;;;;;;;;;;;5065484;28;20342;-63
2024/04/03 01:31:42;;;;;;;;;;;;;;;;;;5085448;28;20368;-62
2024/04/03 01:34:08;;;;;;;;;;;;;;;;;;5088011;28;20003;-62
2024/04/03 01:36:33;;;;;;;;;;;;;;;;;;5087594;27;19939;-63
2024/04/03 01:38:58;;;;;;;;;;;;;;;;;;5086508;28;19916;-63
2024/04/03 01:41:23;;;;;;;;;;;;;;;;;;5086973;28;19962;-63
2024/04/03 01:43:48;;;;;;;;;;;;;;;;;;5086811;28;20357;-63
2024/04/03 01:46:13;;;;;;;;;;;;;;;;;;5084766;28;20448;-64
2024/04/03 01:48:39;;;;;;;;;;;;;;;;;;5081796;28;19963;-63
2024/04/03 01:51:04;;;;;;;;;;;;;;;;;;5088072;28;20217;-63
2024/04/03 01:53:29;;;;;;;;;;;;;;;;;;5086188;28;19920;-66
2024/04/03 01:55:54;;;;;;;;;;;;;;;;;;5087205;28;19943;-63
2024/04/03 01:58:19;;;;;;;;;;;;;;;;;;5081919;28;20342;-63
2024/04/03 02:00:44;;;;;;;;;;;;;;;;;;5087117;28;20302;-63
2024/04/03 02:03:10;;;;;;;;;;;;;;;;;;5086626;28;19963;-63
2024/04/03 02:05:35;;;;;;;;;;;;;;;;;;5086760;28;19939;-63
2024/04/03 02:08:00;;;;;;;;;;;;;;;;;;5086584;28;19917;-62
2024/04/03 02:10:25;;;;;;;;;;;;;;;;;;5087209;28;20004;-63
2024/04/03 02:12:50;;;;;;;;;;;;;;;;;;5078714;28;19916;-63
2024/04/03 02:15:15;;;;;;;;;;;;;;;;;;5080848;28;20538;-62
2024/04/03 02:17:41;;;;;;;;;;;;;;;;;;5085891;28;19927;-63
2024/04/03 02:20:08;;;;;;;;;;;;;;;;;;5086173;28;20068;-67
2024/04/03 02:22:34;;;;;;;;;;;;;;;;;;5087192;28;19926;-64
2024/04/03 02:24:59;;;;;;;;;;;;;;;;;;5086210;28;20008;-64
2024/04/03 02:27:24;;;;;;;;;;;;;;;;;;5076742;28;19984;-67
2024/04/03 02:29:49;;;;;;;;;;;;;;;;;;5071874;28;20435;-66
2024/04/03 02:32:14;;;;;;;;;;;;;;;;;;5086746;28;19916;-63
2024/04/03 02:34:40;;;;;;;;;;;;;;;;;;5087229;28;19939;-62
2024/04/03 02:37:05;;;;;;;;;;;;;;;;;;5085488;28;20386;-61
2024/04/03 02:39:30;;;;;;;;;;;;;;;;;;5086074;28;19916;-62
2024/04/03 02:41:55;;;;;;;;;;;;;;;;;;5085485;28;20362;-65
2024/04/03 02:44:20;;;;;;;;;;;;;;;;;;5070285;28;19916;-62
2024/04/03 02:46:46;;;;;;;;;;;;;;;;;;5059107;28;19928;-63
2024/04/03 02:49:13;;;;;;;;;;;;;;;;;;5072034;28;19916;-63
2024/04/03 02:51:38;;;;;;;;;;;;;;;;;;5079945;28;19929;-63
2024/04/03 02:54:03;;;;;;;;;;;;;;;;;;5076901;28;19947;-63
2024/04/03 02:56:29;;;;;;;;;;;;;;;;;;5084659;28;19927;-63
2024/04/03 02:58:54;;;;;;;;;;;;;;;;;;5085759;28;19927;-67
2024/04/03 03:01:19;;;;;;;;;;;;;;;;;;5080221;28;19924;-65
2024/04/03 03:03:44;;;;;;;;;;;;;;;;;;5081520;28;19916;-63
2024/04/03 03:06:09;;;;;;;;;;;;;;;;;;5078788;28;19916;-64
2024/04/03 03:08:34;;;;;;;;;;;;;;;;;;5081044;28;20007;-64
2024/04/03 03:11:00;;;;;;;;;;;;;;;;;;5079542;28;19931;-64
2024/04/03 03:13:28;;;;;;;;;;;;;;;;;;5074330;28;20322;-64
2024/04/03 03:15:54;;;;;;;;;;;;;;;;;;5068250;28;20081;-64
2024/04/03 03:18:19;;;;;;;;;;;;;;;;;;5080791;28;20007;-63
2024/04/03 03:20:44;;;;;;;;;;;;;;;;;;5096318;28;19920;-65
2024/04/03 03:23:09;;;;;;;;;;;;;;;;;;5074926;28;19916;-66
2024/04/03 03:25:35;;;;;;;;;;;;;;;;;;5079679;28;20382;-66
2024/04/03 03:28:00;;;;;;;;;;;;;;;;;;5079206;28;19925;-67
2024/04/03 03:30:25;;;;;;;;;;;;;;;;;;5073119;28;19998;-65
2024/04/03 03:32:50;;;;;;;;;;;;;;;;;;5073933;28;19917;-66
2024/04/03 03:35:15;;;;;;;;;;;;;;;;;;5066177;28;19993;-66
2024/04/03 03:37:40;;;;;;;;;;;;;;;;;;5067306;28;19927;-66
2024/04/03 03:40:06;;;;;;;;;;;;;;;;;;5067372;28;19917;-65
2024/04/03 03:42:32;;;;;;;;;;;;;;;;;;5074557;28;20352;-68
2024/04/03 03:44:57;;;;;;;;;;;;;;;;;;5069351;28;19920;-67
2024/04/03 03:47:22;;;;;;;;;;;;;;;;;;5064781;28;19916;-64
2024/04/03 03:52:37;;;;;;;;;;;;;;;;;;5073715;28;19924;-65
2024/04/03 03:55:02;;;;;;;;;;;;;;;;;;5070216;28;20003;-64
2024/04/03 03:57:28;;;;;;;;;;;;;;;;;;5070095;28;19999;-67
2024/04/03 03:59:53;;;;;;;;;;;;;;;;;;5070974;28;20030;-66
2024/04/03 04:02:20;;;;;;;;;;;;;;;;;;5083578;28;19973;-65
2024/04/03 04:04:45;;;;;;;;;;;;;;;;;;5078738;28;20044;-62
2024/04/03 04:07:10;;;;;;;;;;;;;;;;;;5081101;28;20550;-62
2024/04/03 04:09:36;;;;;;;;;;;;;;;;;;5075866;28;20048;-63
2024/04/03 04:12:01;;;;;;;;;;;;;;;;;;5077434;28;19932;-63
2024/04/03 04:14:26;;;;;;;;;;;;;;;;;;5084725;28;19999;-63
2024/04/03 04:16:51;;;;;;;;;;;;;;;;;;5087091;28;20465;-65
2024/04/03 04:19:16;;;;;;;;;;;;;;;;;;5083377;28;19924;-65
2024/04/03 04:21:41;;;;;;;;;;;;;;;;;;5089540;28;19923;-66
2024/04/03 04:24:07;;;;;;;;;;;;;;;;;;5083424;28;20387;-68
2024/04/03 04:26:32;;;;;;;;;;;;;;;;;;5086642;28;19916;-66
2024/04/03 04:28:57;;;;;;;;;;;;;;;;;;5086214;28;20311;-64
2024/04/03 04:33:46;;;;;;;3.28;0.40;;;;;;;;;;5032990;28;20416;-60
2024/04/03 04:36:11;;;;;;;1.48;0.60;;;;;;;;;;5028312;28;20037;-60
2024/04/03 04:38:37;;;;;;;0.98;0.40;;;;;;;;;;5028577;28;20523;-59
2024/04/03 04:41:03;;;;;;;2.35;0.40;;;;;;;;;;5030277;28;20029;-59
2024/04/03 04:43:29;;;;;;;2.53;0.43;;;;;;;;;;5029728;28;20026;-60
2024/04/03 04:45:57;;;;;;;1.20;0.60;;;;;;;;;;5028027;28;20041;-61
2024/04/03 04:48:24;;;;;;;1.52;0.50;;;;;;;;;;5025852;28;20131;-59
2024/04/03 04:50:52;;;;;;;1.88;0.50;;;;;;;;;;5028009;28;20053;-60
2024/04/03 04:53:17;;;;;;;2.50;0.60;;;;;;;;;;5027392;28;20092;-59
2024/04/03 04:55:50;;;;;;;0.80;0.43;;;;;;;;;;5031665;28;20068;-65
2024/04/03 04:58:15;;;;;;;1.77;0.57;;;;;;;;;;5030619;28;20037;-61
2024/04/03 05:00:41;;;;;;;1.73;0.75;;;;;;;;;;5031153;28;20033;-63
2024/04/03 05:03:06;;;;;;;1.90;0.45;;;;;;;;;;5029752;28;20407;-66
2024/04/03 05:05:32;;;;;;;1.27;0.70;;;;;;;;;;5032458;28;20036;-61
2024/04/03 05:07:57;;;;;;;1.58;0.90;;;;;;;;;;5032931;28;20025;-59
2024/04/03 05:10:23;;;;;;;3.33;0.60;;;;;;;;;;5031028;28;20412;-60
2024/04/03 05:12:51;;;;;;;2.88;0.80;;;;;;;;;;5028997;28;20035;-62
2024/04/03 05:15:17;;;;;;;2.45;0.73;;;;;;;;;;5032871;28;20105;-59
2024/04/03 05:17:42;;;;;;;3.33;0.70;;;;;;;;;;5032896;28;20096;-60
2024/04/03 05:20:08;;;;;;;3.83;0.85;;;;;;;;;;5037070;28;20116;-59
2024/04/03 05:22:33;;;;;;;2.17;0.77;;;;;;;;;;5044758;28;20382;-59
2024/04/03 05:24:59;;;;;;;2.17;0.95;;;;;;;;;;5017289;28;20046;-59
2024/04/03 05:27:25;;;;;;;2.58;0.80;;;;;;;;;;5006515;28;20025;-61
2024/04/03 05:29:52;;;;;;;1.92;0.70;;;;;;;;;;5006360;28;20052;-61
2024/04/03 05:32:17;;;;;;;3.78;1.02;;;;;;;;;;5006041;28;20033;-64
2024/04/03 05:34:43;;;;;;;4.18;1.10;;;;;;;;;;5008496;28;20026;-59
2024/04/03 05:37:08;;;;;;;4.07;1.13;;;;;;;;;;5006586;28;20014;-60
2024/04/03 05:39:33;;;;;;;6.18;1.52;;;;;;;;;;5006583;28;20026;-59
2024/04/03 05:41:59;;;;;;;4.00;1.75;;;;;;;;;;5004766;28;20029;-59
2024/04/03 05:44:24;;;;;;;3.03;1.30;;;;;;;;;;4994031;28;20438;-58
2024/04/03 05:46:49;;;;;;;4.25;1.30;;;;;;;;;;4979964;28;20030;-57
2024/04/03 05:49:14;;;;;;;3.38;1.23;;;;;;;;;;4986319;28;20642;-58
2024/04/03 05:51:40;;;;;;;5.00;1.55;;;;;;;;;;4989270;28;20419;-59
2024/04/03 05:54:05;;;;;;;4.32;1.48;;;;;;;;;;4993749;28;20029;-58
2024/04/03 05:56:30;;;;;;;4.38;1.30;;;;;;;;;;4992805;28;20462;-57
2024/04/03 05:58:56;;;;;;;3.85;1.35;;;;;;;;;;4993929;28;20095;-60
2024/04/03 06:01:21;;;;;;;3.70;1.40;;;;;;;;;;4992839;28;20101;-58
2024/04/03 06:03:47;;;;;;;4.68;1.60;;;;;;;;;;4994528;28;20031;-62
2024/04/03 06:06:12;;;;;;;8.27;2.22;;;;;;;;;;4993898;28;20025;-59
2024/04/03 06:08:39;;;;;;;4.15;1.25;;;;;;;;;;4996174;28;20034;-56
2024/04/03 06:11:04;;;;;;;3.00;1.33;;;;;;;;;;4994454;28;20042;-58
2024/04/03 06:13:29;;;;;;;4.95;1.40;;;;;;;;;;4993473;28;20043;-62
2024/04/03 06:15:55;;;;;;;4.60;1.50;;;;;;;;;;4994213;28;20113;-60
2024/04/03 06:18:21;;;;;;;3.72;1.30;;;;;;;;;;4993172;28;20130;-60
2024/04/03 06:20:47;;;;;;;6.13;1.80;;;;;;;;;;4995172;28;20041;-58
2024/04/03 06:23:12;;;;;;;3.97;1.80;;;;;;;;;;4996709;28;20038;-59
2024/04/03 06:25:37;;;;;;;4.43;1.63;;;;;;;;;;4994701;28;20073;-61
2024/04/03 06:28:05;;;;;;;5.55;2.10;;;;;;;;;;4993353;28;20127;-59
2024/04/03 06:30:31;;;;;;;6.57;2.03;;;;;;;;;;4994176;28;20045;-58
2024/04/03 06:32:57;;;;;;;6.78;1.90;;;;;;;;;;4992878;28;20111;-61
2024/04/03 06:35:24;;;;;;;6.80;1.98;;;;;;;;;;4992706;28;20034;-61
2024/04/03 06:37:49;;;;;;;7.72;1.95;;;;;;;;;;4994389;28;20066;-59
2024/04/03 06:40:17;;;;;;;4.10;1.55;;;;;;;;;;4991477;28;20058;-61
2024/04/03 06:42:43;;;;;;;3.00;1.40;;;;;;;;;;4992205;28;20034;-60
2024/04/03 06:45:08;;;;;;;4.55;1.70;;;;;;;;;;4982358;28;20038;-60
2024/04/03 06:47:33;;;;;;;6.18;1.95;;;;;;;;;;4992005;28;20061;-58
2024/04/03 06:49:59;;;;;;;5.38;1.38;;;;;;;;;;4992108;28;20066;-61
2024/04/03 06:52:24;;;;;;;3.33;1.55;;;;;;;;;;4992123;28;20061;-61
2024/04/03 06:54:50;;;;;;;6.03;1.75;;;;;;;;;;4990250;28;20050;-60
2024/04/03 06:57:15;;;;;;;6.60;1.50;;;;;;;;;;4995925;28;20548;-59
2024/04/03 06:59:40;;;;;;;4.28;1.50;;;;;;;;;;4997417;28;20041;-59
2024/04/03 07:02:06;;;;;;;5.00;1.42;;;;;;;;;;4994943;28;20053;-61
2024/04/03 07:04:31;;;;;;;5.68;1.30;;;;;;;;;;5005808;28;20033;-58
2024/04/03 07:06:57;;;;;;;5.07;1.40;;;;;;;;;;5013522;28;20056;-58
2024/04/03 07:09:23;;;;;;;3.90;1.40;;;;;;;;;;5023077;28;20068;-59
2024/04/03 07:11:48;;;;;;;3.28;1.23;;;;;;;;;;5022260;28;20042;-57
2024/04/03 07:14:17;;;;;;;6.60;1.35;;;;;;;;;;5015070;28;20034;-59
2024/04/03 07:16:46;;;;;;;3.38;1.30;;;;;;;;;;5004919;28;20112;-59
2024/04/03 07:19:12;;;;;;;3.55;1.40;;;;;;;;;;5006669;28;20041;-59
2024/04/03 07:21:40;;;;;;;3.67;1.30;;;;;;;;;;5004093;28;20173;-59
2024/04/03 07:24:05;;;;;;;4.15;1.25;;;;;;;;;;4997930;28;20065;-59
2024/04/03 07:26:31;;;;;;;3.90;1.33;;;;;;;;;;5009711;28;20033;-58
2024/04/03 07:28:56;;;;;;;6.03;1.30;;;;;;;;;;4995388;28;20400;-58
2024/04/03 07:31:21;;;;;;;5.05;1.35;;;;;;;;;;5007413;28;20196;-58
2024/04/03 07:33:46;;;;;;;3.88;1.20;;;;;;;;;;5005843;28;20438;-58
2024/04/03 07:36:12;;;;;;;4.22;1.40;;;;;;;;;;5006837;28;20476;-58
2024/04/03 07:38:37;;;;;;;3.50;1.40;;;;;;;;;;5006915;28;20041;-59
2024/04/03 07:41:03;;;;;;;4.63;1.55;;;;;;;;;;5001642;28;20044;-58
2024/04/03 07:43:31;;;;;;;4.80;1.27;;;;;;;;;;4996144;28;20132;-59
2024/04/03 07:45:58;;;;;;;4.93;1.30;;;;;;;;;;5004262;28;20101;-59
2024/04/03 07:48:24;;;;;;;5.22;1.42;;;;;;;;;;4993957;28;20125;-59
2024/04/03 07:50:57;;;;;;;3.20;1.30;;;;;;;;;;4999355;28;20536;-59
2024/04/03 07:53:23;;;;;;;3.72;1.20;;;;;;;;;;5001043;28;20050;-59
2024/04/03 07:55:49;;;;;;;3.10;1.20;;;;;;;;;;5003503;28;20041;-58
2024/04/03 07:58:14;;;;;;;7.07;1.52;;;;;;;;;;5000102;28;20041;-59
2024/04/03 08:00:40;;;;;;;5.93;1.48;;;;;;;;;;4989400;28;20125;-62
2024/04/03 08:03:06;;;;;;;6.90;1.83;;;;;;;;;;4995735;28;20129;-60
2024/04/03 08:05:32;;;;;;;3.47;1.20;;;;;;;;;;5003834;28;20026;-59
2024/04/03 08:07:57;;;;;;;5.28;1.27;;;;;;;;;;4972162;28;20034;-59
2024/04/03 08:10:22;;;;;;;6.03;1.45;;;;;;;;;;5002545;28;20031;-60
2024/04/03 08:12:47;;;;;;;3.17;1.33;;;;;;;;;;5004572;28;20038;-59
2024/04/03 08:15:14;;;;;;;5.25;1.70;;;;;;;;;;5006167;28;20190;-61
2024/04/03 08:17:39;;;;;;;3.55;1.30;;;;;;;;;;5007084;28;20575;-58
2024/04/03 08:20:05;;;;;;;5.72;1.30;;;;;;;;;;5001847;28;20049;-59
2024/04/03 08:22:30;;;;;;;3.97;1.20;;;;;;;;;;4998180;28;20066;-59
2024/04/03 08:24:55;;;;;;;3.13;0.77;;;;;;;;;;4987576;28;20524;-60
2024/04/03 08:27:21;;;;;;;3.53;0.95;;;;;;;;;;5001290;28;20046;-59
2024/04/03 08:29:48;;;;;;;3.05;0.82;;;;;;;;;;4989727;28;20038;-61
2024/04/03 08:32:15;;;;;;;2.97;1.00;;;;;;;;;;4990922;28;20169;-58
2024/04/03 08:34:42;;;;;;;5.22;0.90;;;;;;;;;;5005025;28;20038;-60
2024/04/03 08:37:07;;;;;;;3.63;0.70;;;;;;;;;;4993362;28;20039;-61
2024/04/03 08:39:33;;;;;;;2.38;0.75;;;;;;;;;;5002950;28;20030;-59
2024/04/03 08:41:58;;;;;;;2.80;0.68;;;;;;;;;;4987159;28;20942;-58
2024/04/03 08:44:24;;;;;;;1.33;0.63;;;;;;;;;;4990494;28;20053;-60
2024/04/03 08:46:50;;;;;;;2.25;0.70;;;;;;;;;;4994739;28;20034;-59
2024/04/03 08:49:16;;;;;;;2.85;0.60;;;;;;;;;;4994108;28;20460;-58
2024/04/03 08:51:43;;;;;;;1.48;0.63;;;;;;;;;;4994693;28;20500;-59
2024/04/03 08:54:09;;;;;;;1.77;0.60;;;;;;;;;;5000459;28;20030;-58
2024/04/03 08:56:34;;;;;;;3.58;1.10;;;;;;;;;;5007743;28;20038;-58
2024/04/03 08:59:00;;;;;;;5.82;0.90;;;;;;;;;;5005837;28;20392;-58
2024/04/03 09:01:25;;;;;;;3.17;0.70;;;;;;;;;;4998926;28;20088;-60
2024/04/03 09:03:50;;;;;;;2.65;0.68;;;;;;;;;;4990556;28;20136;-59
2024/04/03 09:06:16;;;;;;;1.92;0.60;;;;;;;;;;4992134;28;20034;-59
2024/04/03 09:08:44;;;;;;;3.75;0.65;;;;;;;;;;4998189;28;20035;-60
2024/04/03 09:11:11;;;;;;;2.47;0.70;;;;;;;;;;4996591;28;20110;-59
2024/04/03 09:13:36;;;;;;;3.25;0.77;;;;;;;;;;4995987;28;20042;-62
2024/04/03 09:16:02;;;;;;;4.68;0.65;;;;;;;;;;4996197;28;20034;-60
2024/04/03 09:18:28;;;;;;;3.78;0.70;;;;;;;;;;5009067;28;20393;-59
2024/04/03 09:20:54;;;;;;;3.90;0.90;;;;;;;;;;5009777;28;20496;-58
2024/04/03 09:23:20;;;;;;;2.25;0.57;;;;;;;;;;5008084;28;20112;-60
2024/04/03 09:25:45;;;;;;;4.20;0.57;;;;;;;;;;5006141;28;20104;-61
2024/04/03 09:28:11;;;;;;;3.33;0.60;;;;;;;;;;4993152;28;20462;-61
2024/04/03 09:30:55;;;;;;;2.22;0.50;;;;;;;;;;5002725;28;20049;-59
2024/04/03 09:33:20;;;;;;;2.42;0.70;;;;;;;;;;5003218;28;20603;-59
2024/04/03 09:35:45;;;;;;;3.60;0.70;;;;;;;;;;4990320;28;20125;-59
2024/04/03 09:38:11;;;;;;;3.15;0.57;;;;;;;;;;5003870;28;20117;-59
2024/04/03 09:40:36;;;;;;;2.03;0.60;;;;;;;;;;4996246;28;22079;-59
2024/04/03 09:43:02;;;;;;;2.40;0.63;;;;;;;;;;4991894;28;20507;-60
2024/04/03 09:45:28;;;;;;;3.45;0.65;;;;;;;;;;4994435;28;20524;-59
2024/04/03 09:47:56;;;;;;;3.53;0.60;;;;;;;;;;4999428;28;20100;-59
2024/04/03 09:50:21;;;;;;;4.22;0.98;;;;;;;;;;4997381;28;20058;-59
2024/04/03 09:52:47;;;;;;;2.25;0.50;;;;;;;;;;5013746;28;20080;-60
2024/04/03 09:55:13;;;;;;;1.98;0.60;;;;;;;;;;5008878;28;20475;-59
2024/04/03 09:57:39;;;;;;;2.40;0.70;;;;;;;;;;4975003;28;20046;-59
2024/04/03 10:00:04;;;;;;;1.98;0.70;;;;;;;;;;5021565;28;20034;-59
2024/04/03 10:02:30;;;;;;;2.47;0.57;;;;;;;;;;5023699;28;20042;-59
2024/04/03 10:04:58;;;;;;;3.17;0.60;;;;;;;;;;5016666;28;20463;-59
2024/04/03 10:07:26;;;;;;;1.65;0.70;;;;;;;;;;5014090;28;20038;-58
2024/04/03 10:09:51;;;;;;;1.30;0.50;;;;;;;;;;5008211;28;20034;-58
2024/04/03 10:12:17;;;;;;;2.58;0.70;;;;;;;;;;5025234;28;20575;-59
2024/04/03 10:14:42;;;;;;;1.85;0.50;;;;;;;;;;5016751;28;20542;-58
2024/04/03 10:17:14;;;;;;;2.10;0.40;;;;;;;;;;5008835;28;20037;-60
2024/04/03 10:19:41;;;;;;;1.88;0.60;;;;;;;;;;4990154;28;20042;-59
2024/04/03 10:22:06;;;;;;;1.73;0.40;;;;;;;;;;4991336;28;20037;-58
2024/04/03 10:24:32;;;;;;;2.92;0.60;;;;;;;;;;5006159;28;20014;-58
2024/04/03 10:26:57;;;;;;;2.80;0.80;;;;;;;;;;5007732;28;20244;-58
2024/04/03 10:29:23;;;;;;;5.10;0.80;;;;;;;;;;5007529;28;20050;-60
2024/04/03 10:31:48;;;;;;;3.30;0.90;;;;;;;;;;5023562;28;20462;-58
2024/04/03 10:34:19;;;;;;;5.13;0.85;;;;;;;;;;5009300;28;20579;-58
2024/04/03 10:36:45;;;;;;;6.30;0.80;;;;;;;;;;5014284;28;20018;-58
2024/04/03 10:39:11;;;;;;;3.38;0.63;;;;;;;;;;5011319;28;20018;-58
2024/04/03 10:41:37;;;;;;;3.08;0.68;;;;;;;;;;5010622;28;20025;-57
2024/04/03 10:44:03;;;;;;;2.78;0.60;;;;;;;;;;5011064;28;20037;-57
2024/04/03 10:46:28;;;;;;;4.93;1.02;;;;;;;;;;5012393;28;20014;-61
2024/04/03 10:48:54;;;;;;;4.47;0.70;;;;;;;;;;5012388;28;20022;-57
2024/04/03 10:51:21;;;;;;;5.47;0.52;;;;;;;;;;5012389;28;20032;-58
2024/04/03 10:53:46;;;;;;;5.78;0.80;;;;;;;;;;5011631;28;20056;-54
2024/04/03 10:56:12;;;;;;;3.42;0.65;;;;;;;;;;5011411;28;20046;-59
2024/04/03 10:58:41;;;;;;;2.03;0.52;;;;;;;;;;5011223;28;20499;-57
2024/04/03 11:01:07;;;;;;;1.52;0.50;;;;;;;;;;5016374;28;20186;-59
2024/04/03 11:03:33;;;;;;;3.67;0.55;;;;;;;;;;5012884;28;21901;-58
2024/04/03 11:05:58;;;;;;;2.95;0.40;;;;;;;;;;5010328;28;20030;-57
2024/04/03 11:08:24;;;;;;;2.47;0.65;;;;;;;;;;5011554;28;20508;-58
2024/04/03 11:10:49;;;;;;;1.75;0.68;;;;;;;;;;5011483;28;20527;-59
2024/04/03 11:13:17;;;;;;;3.15;0.60;;;;;;;;;;5013756;28;20527;-58
2024/04/03 11:15:43;;;;;;;1.67;0.50;;;;;;;;;;5009907;28;20037;-58
2024/04/03 11:18:08;;;;;;;2.42;0.50;;;;;;;;;;5012509;28;20500;-62
2024/04/03 11:20:36;;;;;;;1.45;0.57;;;;;;;;;;5011339;28;20109;-58
2024/04/03 11:23:03;;;;;;;1.65;0.70;;;;;;;;;;5012294;28;20080;-57
2024/04/03 11:25:30;;;;;;;2.65;0.60;;;;;;;;;;5011108;28;20045;-58
2024/04/03 11:27:56;;;;;;;3.47;0.70;;;;;;;;;;5011449;28;20106;-57
2024/04/03 11:30:23;;;;;;;2.70;0.57;;;;;;;;;;5013926;28;20053;-56
2024/04/03 11:32:48;;;;;;;1.58;0.60;;;;;;;;;;5010938;28;20114;-57
2024/04/03 11:35:13;;;;;;;2.25;0.60;;;;;;;;;;5009891;28;20045;-57
2024/04/03 11:37:39;;;;;;;4.47;0.90;;;;;;;;;;5011235;28;20066;-57
2024/04/03 11:40:04;;;;;;;1.30;0.50;;;;;;;;;;5012702;28;21612;-57
2024/04/03 11:42:36;;;;;;;3.40;0.73;;;;;;;;;;5007703;28;20033;-57
2024/04/03 11:45:01;;;;;;;2.25;0.50;;;;;;;;;;5011815;28;20250;-58
2024/04/03 11:47:27;;;;;;;2.15;0.73;;;;;;;;;;5011271;28;20946;-57
2024/04/03 11:49:52;;;;;;;0.98;0.60;;;;;;;;;;5010185;28;21602;-56
2024/04/03 11:52:17;;;;;;;2.28;0.70;;;;;;;;;;5010446;28;20492;-57
2024/04/03 11:54:43;;;;;;;1.90;0.70;;;;;;;;;;5010357;28;20140;-57
2024/04/03 11:57:09;;;;;;;2.88;0.80;;;;;;;;;;5009953;28;20071;-57
2024/04/03 11:59:35;;;;;;;1.40;0.55;;;;;;;;;;5009898;28;21054;-57
2024/04/03 12:02:00;;;;;;;2.33;0.50;;;;;;;;;;5010180;28;20085;-56
2024/04/03 12:04:26;;;;;;;2.10;0.60;;;;;;;;;;5008932;28;20463;-55
2024/04/03 12:06:51;;;;;;;2.67;0.68;;;;;;;;;;5009519;28;20811;-56
2024/04/03 12:09:16;;;;;;;2.38;0.68;;;;;;;;;;5010280;28;20038;-57
2024/04/03 12:11:42;;;;;;;1.52;0.57;;;;;;;;;;5010318;28;20076;-57
2024/04/03 12:14:08;;;;;;;2.35;0.60;;;;;;;;;;5010109;28;20389;-57
2024/04/03 12:16:34;;;;;;;1.88;0.70;;;;;;;;;;5009926;28;20421;-57
2024/04/03 12:19:52;;;;;;;2.53;0.70;;;;;;;;;;5010289;28;20116;-56
2024/04/03 12:21:45;;;;;;;1.95;0.70;;;;;;;;;;5001194;28;20060;-60
2024/04/03 12:24:11;;;;;;;2.17;0.60;;;;;;;;;;5011256;28;20073;-55
2024/04/03 12:26:39;;;;;;;1.48;0.45;;;;;;;;;;5010831;28;20034;-56
2024/04/03 12:29:04;;;;;;;2.78;0.80;;;;;;;;;;4999164;28;20068;-57
2024/04/03 12:31:30;;;;;;;1.65;0.77;;;;;;;;;;5001578;28;20515;-56
2024/04/03 12:33:56;;;;;;;1.85;0.60;;;;;;;;;;5009816;28;20123;-57
2024/04/03 12:36:23;;;;;;;4.18;0.60;;;;;;;;;;5009381;28;20041;-56
2024/04/03 12:38:48;;;;;;;2.83;0.43;;;;;;;;;;5011496;28;20043;-58
2024/04/03 12:41:14;;;;;;;1.33;0.60;;;;;;;;;;5009964;28;20034;-58
2024/04/03 12:43:40;;;;;;;2.55;0.50;;;;;;;;;;5009707;28;20121;-58
2024/04/03 12:46:06;;;;;;;2.22;0.60;;;;;;;;;;5007373;28;20064;-57
2024/04/03 12:48:31;;;;;;;1.45;0.50;;;;;;;;;;5010879;28;20030;-57
2024/04/03 12:50:56;;;;;;;1.27;0.50;;;;;;;;;;5009053;28;20053;-57
2024/04/03 12:53:22;;;;;;;2.30;0.65;;;;;;;;;;5010696;28;20049;-56
2024/04/03 12:55:48;;;;;;;1.88;0.52;;;;;;;;;;5001167;28;20176;-57
2024/04/03 12:58:13;;;;;;;1.00;0.38;;;;;;;;;;5008333;28;20037;-57
2024/04/03 13:00:38;;;;;;;1.10;0.40;;;;;;;;;;5000646;28;20026;-56
2024/04/03 13:03:04;;;;;;;2.80;0.73;;;;;;;;;;5007140;28;20835;-57
2024/04/03 13:05:29;;;;;;;1.95;0.60;;;;;;;;;;5015351;28;20038;-57
2024/04/03 13:07:55;;;;;;;2.92;0.60;;;;;;;;;;5009612;28;20496;-59
2024/04/03 13:10:21;;;;;;;2.88;0.60;;;;;;;;;;5003351;28;20030;-57
2024/04/03 13:12:46;;;;;;;3.47;0.60;;;;;;;;;;4995973;28;20042;-60
2024/04/03 13:15:11;;;;;;;2.20;0.68;;;;;;;;;;4991211;28;20037;-57
2024/04/03 13:17:38;;;;;;;2.70;0.80;;;;;;;;;;5007465;28;20041;-57
2024/04/03 13:20:04;;;;;;;1.80;0.80;;;;;;;;;;5009015;28;20054;-57
2024/04/03 13:22:32;;;;;;;2.25;0.70;;;;;;;;;;5011447;28;20104;-56
2024/04/03 13:24:58;;;;;;;1.73;0.75;;;;;;;;;;5008201;28;20476;-56
2024/04/03 13:27:23;;;;;;;1.75;0.70;;;;;;;;;;5006405;28;20146;-57
2024/04/03 13:30:26;;;;;;;;;;;;;;;;;;;;;
2024/04/03 13:35:43;;;;;;;7.88;1.05;;;;;;;;;;4987559;28;19936;-58
2024/04/03 13:38:09;;;;;;;1.35;0.50;;;;;;;;;;5013415;28;20050;-57
2024/04/03 13:40:36;;;;;;;3.47;0.68;;;;;;;;;;5026161;28;20025;-58
2024/04/03 13:43:01;;;;;;;3.45;0.70;;;;;;;;;;5012823;28;20061;-58
2024/04/03 13:45:26;;;;;;;1.98;0.77;;;;;;;;;;5022208;28;20487;-58
2024/04/03 13:47:52;;;;;;;4.93;0.85;;;;;;;;;;5011617;28;20117;-59
2024/04/03 13:50:17;;;;;;;3.53;0.70;;;;;;;;;;5018321;28;20037;-58
2024/04/03 13:52:43;;;;;;;3.58;0.63;;;;;;;;;;5011430;28;20042;-58
2024/04/03 13:55:08;;;;;;;2.83;0.77;;;;;;;;;;5016740;28;20151;-56
2024/04/03 13:57:34;;;;;;;1.15;0.63;;;;;;;;;;5019996;28;20373;-61
2024/04/03 13:59:59;;;;;;;2.50;0.80;;;;;;;;;;5013210;28;20514;-58
2024/04/03 14:02:25;;;;;;;1.52;0.70;;;;;;;;;;5015798;28;20096;-57
2024/04/03 14:04:50;;;;;;;5.03;0.60;;;;;;;;;;5020348;28;20042;-57
2024/04/03 14:07:16;;;;;;;2.58;0.70;;;;;;;;;;5016184;28;20129;-57
2024/04/03 14:09:41;;;;;;;4.50;0.73;;;;;;;;;;5011918;28;20103;-58
2024/04/03 14:12:06;;;;;;;2.03;0.80;;;;;;;;;;5016782;28;20085;-56
2024/04/03 14:14:32;;;;;;;2.72;0.80;;;;;;;;;;5010318;28;20116;-57
2024/04/03 14:16:57;;;;;;;2.92;0.90;;;;;;;;;;4996504;28;20054;-58
2024/04/03 14:19:22;;;;;;;3.10;0.85;;;;;;;;;;4996597;28;20039;-56
2024/04/03 14:21:48;;;;;;;2.95;0.75;;;;;;;;;;4996726;28;20042;-58
2024/04/03 14:24:13;;;;;;;3.38;1.00;;;;;;;;;;4995259;28;20044;-58
2024/04/03 14:26:39;;;;;;;2.55;0.80;;;;;;;;;;4993922;28;20046;-60
2024/04/03 14:29:04;;;;;;;3.90;0.77;;;;;;;;;;4999546;28;20038;-58
2024/04/03 14:31:29;;;;;;;2.00;0.73;;;;;;;;;;5012476;28;20119;-57
2024/04/03 14:33:55;;;;;;;2.00;0.80;;;;;;;;;;5014690;28;20528;-57
2024/04/03 14:36:20;;;;;;;1.48;0.60;;;;;;;;;;4996982;28;20030;-58
2024/04/03 14:38:46;;;;;;;2.63;0.80;;;;;;;;;;5000670;28;20511;-59
2024/04/03 14:41:11;;;;;;;2.15;0.70;;;;;;;;;;5002227;28;20048;-58
2024/04/03 14:43:36;;;;;;;2.00;0.98;;;;;;;;;;5002598;28;20124;-55
2024/04/03 14:46:02;;;;;;;3.63;0.80;;;;;;;;;;4999883;28;20033;-57
2024/04/03 14:48:29;;;;;;;2.97;0.57;;;;;;;;;;5012607;28;20030;-57
2024/04/03 14:50:57;;;;;;;3.20;0.73;;;;;;;;;;5011135;28;20069;-58
2024/04/03 14:53:23;;;;;;;4.10;0.63;;;;;;;;;;5012632;28;20038;-58
2024/04/03 14:55:49;;;;;;;1.95;0.60;;;;;;;;;;5013315;28;20048;-59
2024/04/03 14:58:15;;;;;;;2.00;0.77;;;;;;;;;;5013550;28;20033;-58
2024/04/03 15:00:42;;;;;;;1.25;0.50;;;;;;;;;;5017925;28;20586;-59
2024/04/03 15:03:07;;;;;;;2.58;0.60;;;;;;;;;;5020138;28;20091;-57
2024/04/03 15:05:32;;;;;;;2.08;0.70;;;;;;;;;;5015125;28;20042;-57
2024/04/03 15:07:58;;;;;;;2.13;0.60;;;;;;;;;;5015571;28;20065;-58
2024/04/03 15:10:23;;;;;;;3.25;0.70;;;;;;;;;;5017731;28;20030;-57
2024/04/03 15:12:48;;;;;;;2.83;0.77;;;;;;;;;;5016978;28;20500;-58
2024/04/03 15:15:14;;;;;;;1.50;0.68;;;;;;;;;;5016878;28;20037;-58
2024/04/03 15:17:43;;;;;;;2.58;0.68;;;;;;;;;;5008040;28;20030;-58